sensor_id;sensor_type;location;lat;lon;timestamp;temperature;humidity
6355;DHT22;3210;48.708;9.030;2022-10-22T00:02:18;12.50;99.90
6355;DHT22;3210;48.708;9.030;2022-10-22T00:04:49;12.60;99.90
6355;DHT22;3210;48.708;9.030;2022-10-22T00:07:23;12.50;99.90
6355;DHT22;3210;48.708;9.030;2022-10-22T00:09:54;12.50;99.90
6355;DHT22;3210;48.708;9.030;2022-10-22T00:12:26;12.30;99.90
6355;DHT22;3210;48.708;9.030;2022-10-22T00:14:57;12.30;99.90
6355;DHT22;3210;48.708;9.030;2022-10-22T00:17:27;12.20;99.90
6355;DHT22;3210;48.708;9.030;2022-10-22T00:19:59;12.20;99.90
6355;DHT22;3210;48.708;9.030;2022-10-22T00:22:31;12.30;99.90
6355;DHT22;3210;48.708;9.030;2022-10-22T00:25:02;12.30;99.90
6355;DHT22;3210;48.708;9.030;2022-10-22T00:27:31;12.30;99.90
6355;DHT22;3210;48.708;9.030;2022-10-22T00:30:01;12.50;99.90
6355;DHT22;3210;48.708;9.030;2022-10-22T00:32:32;12.50;99.90
6355;DHT22;3210;48.708;9.030;2022-10-22T00:35:00;12.50;99.90
6355;DHT22;3210;48.708;9.030;2022-10-22T00:37:33;12.50;99.90
6355;DHT22;3210;48.708;9.030;2022-10-22T00:40:04;12.40;99.90
6355;DHT22;3210;48.708;9.030;2022-10-22T00:42:35;12.50;99.90
6355;DHT22;3210;48.708;9.030;2022-10-22T00:45:20;12.50;99.90
6355;DHT22;3210;48.708;9.030;2022-10-22T00:47:52;12.50;75.20
6355;DHT22;3210;48.708;9.030;2022-10-22T00:50:28;12.50;99.90
6355;DHT22;3210;48.708;9.030;2022-10-22T00:53:07;12.50;99.90
6355;DHT22;3210;48.708;9.030;2022-10-22T00:55:42;12.40;99.90
6355;DHT22;3210;48.708;9.030;2022-10-22T00:58:13;12.40;99.90
6355;DHT22;3210;48.708;9.030;2022-10-22T01:00:43;12.30;99.90
6355;DHT22;3210;48.708;9.030;2022-10-22T01:03:18;12.30;99.90
6355;DHT22;3210;48.708;9.030;2022-10-22T01:05:55;12.30;99.90
6355;DHT22;3210;48.708;9.030;2022-10-22T01:08:40;12.30;99.90
6355;DHT22;3210;48.708;9.030;2022-10-22T01:11:23;12.30;99.90
6355;DHT22;3210;48.708;9.030;2022-10-22T01:14:02;12.30;99.90
6355;DHT22;3210;48.708;9.030;2022-10-22T01:16:35;12.30;99.90
6355;DHT22;3210;48.708;9.030;2022-10-22T01:19:19;12.30;99.90
6355;DHT22;3210;48.708;9.030;2022-10-22T01:21:57;12.30;99.90
6355;DHT22;3210;48.708;9.030;2022-10-22T01:24:34;12.40;99.90
6355;DHT22;3210;48.708;9.030;2022-10-22T01:27:23;12.50;99.90
6355;DHT22;3210;48.708;9.030;2022-10-22T01:29:58;12.50;99.90
6355;DHT22;3210;48.708;9.030;2022-10-22T01:32:31;12.50;99.90
6355;DHT22;3210;48.708;9.030;2022-10-22T01:35:03;12.40;99.90
6355;DHT22;3210;48.708;9.030;2022-10-22T01:37:36;12.40;99.90
6355;DHT22;3210;48.708;9.030;2022-10-22T01:40:08;12.50;91.80
6355;DHT22;3210;48.708;9.030;2022-10-22T01:42:37;12.50;40.20
6355;DHT22;3210;48.708;9.030;2022-10-22T01:45:12;12.50;1.00
6355;DHT22;3210;48.708;9.030;2022-10-22T01:47:46;12.60;1.00
6355;DHT22;3210;48.708;9.030;2022-10-22T01:50:34;12.50;1.00
6355;DHT22;3210;48.708;9.030;2022-10-22T01:53:17;12.40;1.00
6355;DHT22;3210;48.708;9.030;2022-10-22T01:55:55;12.40;98.10
6355;DHT22;3210;48.708;9.030;2022-10-22T01:58:37;12.30;99.90
6355;DHT22;3210;48.708;9.030;2022-10-22T02:01:13;12.30;99.90
6355;DHT22;3210;48.708;9.030;2022-10-22T02:03:43;12.30;99.90
6355;DHT22;3210;48.708;9.030;2022-10-22T02:06:15;12.30;99.90
6355;DHT22;3210;48.708;9.030;2022-10-22T02:08:44;12.30;99.90
6355;DHT22;3210;48.708;9.030;2022-10-22T02:11:13;12.20;99.90
6355;DHT22;3210;48.708;9.030;2022-10-22T02:13:43;12.20;99.90
6355;DHT22;3210;48.708;9.030;2022-10-22T02:16:16;12.20;99.90
6355;DHT22;3210;48.708;9.030;2022-10-22T02:18:47;12.30;99.90
6355;DHT22;3210;48.708;9.030;2022-10-22T02:21:16;12.20;99.90
6355;DHT22;3210;48.708;9.030;2022-10-22T02:23:43;12.20;99.90
6355;DHT22;3210;48.708;9.030;2022-10-22T02:26:17;12.20;99.90
6355;DHT22;3210;48.708;9.030;2022-10-22T02:28:58;12.20;99.90
6355;DHT22;3210;48.708;9.030;2022-10-22T02:31:31;12.20;99.90
6355;DHT22;3210;48.708;9.030;2022-10-22T02:34:02;12.30;99.90
6355;DHT22;3210;48.708;9.030;2022-10-22T02:36:33;12.30;99.90
6355;DHT22;3210;48.708;9.030;2022-10-22T02:39:01;12.30;99.90
6355;DHT22;3210;48.708;9.030;2022-10-22T02:41:30;12.30;99.90
6355;DHT22;3210;48.708;9.030;2022-10-22T02:43:58;12.20;99.90
6355;DHT22;3210;48.708;9.030;2022-10-22T02:46:29;12.40;99.90
6355;DHT22;3210;48.708;9.030;2022-10-22T02:48:57;12.30;99.90
6355;DHT22;3210;48.708;9.030;2022-10-22T02:51:25;12.30;99.90
6355;DHT22;3210;48.708;9.030;2022-10-22T02:53:51;12.30;99.90
6355;DHT22;3210;48.708;9.030;2022-10-22T02:56:18;12.30;99.90
6355;DHT22;3210;48.708;9.030;2022-10-22T02:58:45;12.30;99.90
6355;DHT22;3210;48.708;9.030;2022-10-22T03:01:12;12.30;99.90
6355;DHT22;3210;48.708;9.030;2022-10-22T03:03:40;12.30;99.90
6355;DHT22;3210;48.708;9.030;2022-10-22T03:06:07;12.30;99.90
6355;DHT22;3210;48.708;9.030;2022-10-22T03:08:34;12.40;15.90
6355;DHT22;3210;48.708;9.030;2022-10-22T03:11:01;12.40;1.00
6355;DHT22;3210;48.708;9.030;2022-10-22T03:13:28;12.40;49.50
6355;DHT22;3210;48.708;9.030;2022-10-22T03:15:55;12.40;9.20
6355;DHT22;3210;48.708;9.030;2022-10-22T03:18:22;12.30;1.00
6355;DHT22;3210;48.708;9.030;2022-10-22T03:20:59;12.40;1.00
6355;DHT22;3210;48.708;9.030;2022-10-22T03:23:27;12.30;1.00
6355;DHT22;3210;48.708;9.030;2022-10-22T03:25:54;12.30;94.30
6355;DHT22;3210;48.708;9.030;2022-10-22T03:28:21;12.30;99.90
6355;DHT22;3210;48.708;9.030;2022-10-22T03:30:47;12.40;99.90
6355;DHT22;3210;48.708;9.030;2022-10-22T03:33:15;12.30;99.90
6355;DHT22;3210;48.708;9.030;2022-10-22T03:35:44;12.20;99.90
6355;DHT22;3210;48.708;9.030;2022-10-22T03:38:13;12.20;99.90
6355;DHT22;3210;48.708;9.030;2022-10-22T03:40:42;12.20;99.90
6355;DHT22;3210;48.708;9.030;2022-10-22T03:43:12;12.20;99.90
6355;DHT22;3210;48.708;9.030;2022-10-22T03:45:41;12.20;99.90
6355;DHT22;3210;48.708;9.030;2022-10-22T03:48:08;12.20;99.90
6355;DHT22;3210;48.708;9.030;2022-10-22T03:50:35;12.20;99.90
6355;DHT22;3210;48.708;9.030;2022-10-22T03:53:03;12.10;99.90
6355;DHT22;3210;48.708;9.030;2022-10-22T03:55:33;12.20;99.90
6355;DHT22;3210;48.708;9.030;2022-10-22T03:58:00;12.20;99.90
6355;DHT22;3210;48.708;9.030;2022-10-22T04:00:27;12.20;99.90
6355;DHT22;3210;48.708;9.030;2022-10-22T04:02:54;12.10;99.90
6355;DHT22;3210;48.708;9.030;2022-10-22T04:05:22;12.10;99.90
6355;DHT22;3210;48.708;9.030;2022-10-22T04:07:52;12.10;99.90
6355;DHT22;3210;48.708;9.030;2022-10-22T04:10:19;12.10;99.90
6355;DHT22;3210;48.708;9.030;2022-10-22T04:12:48;12.20;99.90
6355;DHT22;3210;48.708;9.030;2022-10-22T04:15:15;12.20;99.90
6355;DHT22;3210;48.708;9.030;2022-10-22T04:17:42;12.10;91.90
6355;DHT22;3210;48.708;9.030;2022-10-22T04:20:10;12.10;99.90
6355;DHT22;3210;48.708;9.030;2022-10-22T04:22:37;12.10;99.90
6355;DHT22;3210;48.708;9.030;2022-10-22T04:25:08;12.10;99.90
6355;DHT22;3210;48.708;9.030;2022-10-22T04:27:35;12.00;99.90
6355;DHT22;3210;48.708;9.030;2022-10-22T04:30:05;12.00;99.90
6355;DHT22;3210;48.708;9.030;2022-10-22T04:32:32;12.00;99.90
6355;DHT22;3210;48.708;9.030;2022-10-22T04:34:59;12.00;99.90
6355;DHT22;3210;48.708;9.030;2022-10-22T04:37:25;11.90;99.90
6355;DHT22;3210;48.708;9.030;2022-10-22T04:39:52;12.00;99.90
6355;DHT22;3210;48.708;9.030;2022-10-22T04:42:19;11.90;99.90
6355;DHT22;3210;48.708;9.030;2022-10-22T04:44:46;11.90;99.90
6355;DHT22;3210;48.708;9.030;2022-10-22T04:47:14;12.00;99.90
6355;DHT22;3210;48.708;9.030;2022-10-22T04:49:41;11.90;99.90
6355;DHT22;3210;48.708;9.030;2022-10-22T04:52:08;11.90;99.90
6355;DHT22;3210;48.708;9.030;2022-10-22T04:54:37;11.90;99.90
6355;DHT22;3210;48.708;9.030;2022-10-22T04:57:04;11.90;99.90
6355;DHT22;3210;48.708;9.030;2022-10-22T04:59:31;11.90;99.90
6355;DHT22;3210;48.708;9.030;2022-10-22T05:01:58;11.90;99.90
6355;DHT22;3210;48.708;9.030;2022-10-22T05:04:26;11.80;99.90
6355;DHT22;3210;48.708;9.030;2022-10-22T05:06:53;11.80;99.90
6355;DHT22;3210;48.708;9.030;2022-10-22T05:09:20;11.80;99.90
6355;DHT22;3210;48.708;9.030;2022-10-22T05:11:49;11.80;99.90
6355;DHT22;3210;48.708;9.030;2022-10-22T05:14:18;11.90;99.90
6355;DHT22;3210;48.708;9.030;2022-10-22T05:16:45;11.90;99.90
6355;DHT22;3210;48.708;9.030;2022-10-22T05:19:16;11.80;99.90
6355;DHT22;3210;48.708;9.030;2022-10-22T05:21:45;11.80;99.90
6355;DHT22;3210;48.708;9.030;2022-10-22T05:24:12;11.70;99.90
6355;DHT22;3210;48.708;9.030;2022-10-22T05:26:39;11.70;99.90
6355;DHT22;3210;48.708;9.030;2022-10-22T05:29:06;11.50;99.90
6355;DHT22;3210;48.708;9.030;2022-10-22T05:31:33;11.50;99.90
6355;DHT22;3210;48.708;9.030;2022-10-22T05:33:59;11.40;99.90
6355;DHT22;3210;48.708;9.030;2022-10-22T05:36:26;11.40;99.90
6355;DHT22;3210;48.708;9.030;2022-10-22T05:38:56;11.30;99.90
6355;DHT22;3210;48.708;9.030;2022-10-22T05:41:24;11.30;99.90
6355;DHT22;3210;48.708;9.030;2022-10-22T05:43:54;11.20;99.90
6355;DHT22;3210;48.708;9.030;2022-10-22T05:46:23;11.30;99.90
6355;DHT22;3210;48.708;9.030;2022-10-22T05:48:50;11.30;99.90
6355;DHT22;3210;48.708;9.030;2022-10-22T05:51:18;11.20;99.90
6355;DHT22;3210;48.708;9.030;2022-10-22T05:53:45;11.20;99.90
6355;DHT22;3210;48.708;9.030;2022-10-22T05:56:14;11.30;99.90
6355;DHT22;3210;48.708;9.030;2022-10-22T05:58:42;11.20;99.90
6355;DHT22;3210;48.708;9.030;2022-10-22T06:01:12;11.20;99.90
6355;DHT22;3210;48.708;9.030;2022-10-22T06:03:39;11.30;99.90
6355;DHT22;3210;48.708;9.030;2022-10-22T06:06:14;11.30;99.90
6355;DHT22;3210;48.708;9.030;2022-10-22T06:08:43;11.30;99.90
6355;DHT22;3210;48.708;9.030;2022-10-22T06:11:10;11.40;99.90
6355;DHT22;3210;48.708;9.030;2022-10-22T06:13:38;11.30;99.90
6355;DHT22;3210;48.708;9.030;2022-10-22T06:16:05;11.30;99.90
6355;DHT22;3210;48.708;9.030;2022-10-22T06:18:32;11.30;99.90
6355;DHT22;3210;48.708;9.030;2022-10-22T06:21:04;11.40;99.90
6355;DHT22;3210;48.708;9.030;2022-10-22T06:23:31;11.40;99.90
6355;DHT22;3210;48.708;9.030;2022-10-22T06:25:59;11.50;99.90
6355;DHT22;3210;48.708;9.030;2022-10-22T06:28:26;11.60;99.90
6355;DHT22;3210;48.708;9.030;2022-10-22T06:30:56;11.70;99.90
6355;DHT22;3210;48.708;9.030;2022-10-22T06:33:23;11.70;99.90
6355;DHT22;3210;48.708;9.030;2022-10-22T06:35:50;11.80;99.90
6355;DHT22;3210;48.708;9.030;2022-10-22T06:38:16;11.90;99.90
6355;DHT22;3210;48.708;9.030;2022-10-22T06:40:43;11.90;99.90
6355;DHT22;3210;48.708;9.030;2022-10-22T06:43:10;12.00;99.90
6355;DHT22;3210;48.708;9.030;2022-10-22T06:45:37;12.00;99.90
6355;DHT22;3210;48.708;9.030;2022-10-22T06:48:06;12.10;99.90
6355;DHT22;3210;48.708;9.030;2022-10-22T06:50:33;12.10;99.90
6355;DHT22;3210;48.708;9.030;2022-10-22T06:53:00;12.10;99.90
6355;DHT22;3210;48.708;9.030;2022-10-22T06:55:27;12.10;99.90
6355;DHT22;3210;48.708;9.030;2022-10-22T06:57:54;12.10;99.90
6355;DHT22;3210;48.708;9.030;2022-10-22T07:00:21;12.20;99.90
6355;DHT22;3210;48.708;9.030;2022-10-22T07:02:50;12.30;99.90
6355;DHT22;3210;48.708;9.030;2022-10-22T07:05:19;12.30;99.90
6355;DHT22;3210;48.708;9.030;2022-10-22T07:07:46;12.40;97.80
6355;DHT22;3210;48.708;9.030;2022-10-22T07:10:13;12.40;24.10
6355;DHT22;3210;48.708;9.030;2022-10-22T07:12:40;12.40;34.00
6355;DHT22;3210;48.708;9.030;2022-10-22T07:15:08;12.50;75.90
6355;DHT22;3210;48.708;9.030;2022-10-22T07:17:34;12.50;97.50
6355;DHT22;3210;48.708;9.030;2022-10-22T07:20:01;12.60;99.90
6355;DHT22;3210;48.708;9.030;2022-10-22T07:22:29;12.70;22.40
6355;DHT22;3210;48.708;9.030;2022-10-22T07:24:57;12.80;1.00
6355;DHT22;3210;48.708;9.030;2022-10-22T07:27:24;12.70;1.00
6355;DHT22;3210;48.708;9.030;2022-10-22T07:29:51;12.80;1.00
6355;DHT22;3210;48.708;9.030;2022-10-22T07:32:17;12.70;1.00
6355;DHT22;3210;48.708;9.030;2022-10-22T07:34:44;12.80;1.00
6355;DHT22;3210;48.708;9.030;2022-10-22T07:37:11;12.80;99.90
6355;DHT22;3210;48.708;9.030;2022-10-22T07:39:39;12.80;1.00
6355;DHT22;3210;48.708;9.030;2022-10-22T07:42:06;12.80;1.00
6355;DHT22;3210;48.708;9.030;2022-10-22T07:44:33;12.80;1.00
6355;DHT22;3210;48.708;9.030;2022-10-22T07:47:00;12.90;99.90
6355;DHT22;3210;48.708;9.030;2022-10-22T07:49:26;13.00;65.00
6355;DHT22;3210;48.708;9.030;2022-10-22T07:51:53;13.00;99.90
6355;DHT22;3210;48.708;9.030;2022-10-22T07:54:21;13.00;1.00
6355;DHT22;3210;48.708;9.030;2022-10-22T07:56:49;13.10;99.90
6355;DHT22;3210;48.708;9.030;2022-10-22T07:59:16;13.20;1.00
6355;DHT22;3210;48.708;9.030;2022-10-22T08:01:43;13.20;99.70
6355;DHT22;3210;48.708;9.030;2022-10-22T08:04:11;13.30;79.50
6355;DHT22;3210;48.708;9.030;2022-10-22T08:06:38;13.40;1.00
6355;DHT22;3210;48.708;9.030;2022-10-22T08:09:05;13.40;99.90
6355;DHT22;3210;48.708;9.030;2022-10-22T08:11:32;13.40;99.90
6355;DHT22;3210;48.708;9.030;2022-10-22T08:14:00;13.40;1.00
6355;DHT22;3210;48.708;9.030;2022-10-22T08:16:28;13.50;99.90
6355;DHT22;3210;48.708;9.030;2022-10-22T08:18:55;13.60;77.40
6355;DHT22;3210;48.708;9.030;2022-10-22T08:21:21;13.70;1.00
6355;DHT22;3210;48.708;9.030;2022-10-22T08:23:48;13.90;99.90
6355;DHT22;3210;48.708;9.030;2022-10-22T08:26:15;13.90;1.00
6355;DHT22;3210;48.708;9.030;2022-10-22T08:28:42;14.10;1.00
6355;DHT22;3210;48.708;9.030;2022-10-22T08:31:11;14.20;1.00
6355;DHT22;3210;48.708;9.030;2022-10-22T08:33:38;14.10;1.00
6355;DHT22;3210;48.708;9.030;2022-10-22T08:36:06;14.10;3.30
6355;DHT22;3210;48.708;9.030;2022-10-22T08:38:33;14.20;63.50
6355;DHT22;3210;48.708;9.030;2022-10-22T08:41:07;14.40;99.90
6355;DHT22;3210;48.708;9.030;2022-10-22T08:43:53;14.50;1.00
6355;DHT22;3210;48.708;9.030;2022-10-22T08:46:32;14.50;1.00
6355;DHT22;3210;48.708;9.030;2022-10-22T08:49:03;14.70;99.90
6355;DHT22;3210;48.708;9.030;2022-10-22T08:51:33;14.70;99.90
6355;DHT22;3210;48.708;9.030;2022-10-22T08:54:12;14.70;99.90
6355;DHT22;3210;48.708;9.030;2022-10-22T08:56:42;14.80;99.90
6355;DHT22;3210;48.708;9.030;2022-10-22T08:59:13;15.00;99.90
6355;DHT22;3210;48.708;9.030;2022-10-22T09:01:46;15.00;99.90
6355;DHT22;3210;48.708;9.030;2022-10-22T09:04:17;15.10;1.00
6355;DHT22;3210;48.708;9.030;2022-10-22T09:06:50;15.20;99.90
6355;DHT22;3210;48.708;9.030;2022-10-22T09:09:18;15.30;99.90
6355;DHT22;3210;48.708;9.030;2022-10-22T09:11:47;15.40;8.20
6355;DHT22;3210;48.708;9.030;2022-10-22T09:14:16;15.50;1.00
6355;DHT22;3210;48.708;9.030;2022-10-22T09:17:00;15.60;1.00
6355;DHT22;3210;48.708;9.030;2022-10-22T09:19:32;15.70;99.90
6355;DHT22;3210;48.708;9.030;2022-10-22T09:22:13;15.80;99.90
6355;DHT22;3210;48.708;9.030;2022-10-22T09:24:45;15.80;99.90
6355;DHT22;3210;48.708;9.030;2022-10-22T09:27:15;15.80;99.90
6355;DHT22;3210;48.708;9.030;2022-10-22T09:29:43;16.00;40.00
6355;DHT22;3210;48.708;9.030;2022-10-22T09:32:12;16.10;99.90
6355;DHT22;3210;48.708;9.030;2022-10-22T09:34:39;16.20;89.80
6355;DHT22;3210;48.708;9.030;2022-10-22T09:37:07;16.40;1.00
6355;DHT22;3210;48.708;9.030;2022-10-22T09:39:38;16.40;1.00
6355;DHT22;3210;48.708;9.030;2022-10-22T09:42:06;16.40;1.00
6355;DHT22;3210;48.708;9.030;2022-10-22T09:44:33;16.60;1.00
6355;DHT22;3210;48.708;9.030;2022-10-22T09:47:03;16.60;1.00
6355;DHT22;3210;48.708;9.030;2022-10-22T09:49:34;16.60;1.00
6355;DHT22;3210;48.708;9.030;2022-10-22T09:52:01;16.70;1.00
6355;DHT22;3210;48.708;9.030;2022-10-22T09:54:38;16.70;1.00
6355;DHT22;3210;48.708;9.030;2022-10-22T09:57:13;16.90;1.00
6355;DHT22;3210;48.708;9.030;2022-10-22T09:59:42;17.00;1.00
6355;DHT22;3210;48.708;9.030;2022-10-22T10:02:12;17.00;1.00
6355;DHT22;3210;48.708;9.030;2022-10-22T10:04:45;17.10;99.90
6355;DHT22;3210;48.708;9.030;2022-10-22T10:07:16;17.20;1.00
6355;DHT22;3210;48.708;9.030;2022-10-22T10:09:43;17.30;1.00
6355;DHT22;3210;48.708;9.030;2022-10-22T10:12:29;17.30;1.00
6355;DHT22;3210;48.708;9.030;2022-10-22T10:15:06;17.40;99.90
6355;DHT22;3210;48.708;9.030;2022-10-22T10:17:44;17.50;99.90
6355;DHT22;3210;48.708;9.030;2022-10-22T10:20:25;17.50;99.90
6355;DHT22;3210;48.708;9.030;2022-10-22T10:22:59;17.40;99.90
6355;DHT22;3210;48.708;9.030;2022-10-22T10:25:36;17.50;99.90
6355;DHT22;3210;48.708;9.030;2022-10-22T10:28:20;17.50;99.90
6355;DHT22;3210;48.708;9.030;2022-10-22T10:30:56;17.70;99.90
6355;DHT22;3210;48.708;9.030;2022-10-22T10:33:32;17.70;99.90
6355;DHT22;3210;48.708;9.030;2022-10-22T10:36:10;17.70;99.90
6355;DHT22;3210;48.708;9.030;2022-10-22T10:38:42;17.80;99.90
6355;DHT22;3210;48.708;9.030;2022-10-22T10:41:16;17.80;99.90
6355;DHT22;3210;48.708;9.030;2022-10-22T10:43:55;17.80;99.90
6355;DHT22;3210;48.708;9.030;2022-10-22T10:46:33;17.80;99.90
6355;DHT22;3210;48.708;9.030;2022-10-22T10:49:10;17.90;99.90
6355;DHT22;3210;48.708;9.030;2022-10-22T10:51:56;17.90;99.90
6355;DHT22;3210;48.708;9.030;2022-10-22T10:54:34;17.90;99.90
6355;DHT22;3210;48.708;9.030;2022-10-22T10:57:10;18.00;99.90
6355;DHT22;3210;48.708;9.030;2022-10-22T10:59:48;18.10;99.90
6355;DHT22;3210;48.708;9.030;2022-10-22T11:08:13;18.40;99.90
6355;DHT22;3210;48.708;9.030;2022-10-22T11:10:44;18.50;99.90
6355;DHT22;3210;48.708;9.030;2022-10-22T11:13:18;18.50;99.90
6355;DHT22;3210;48.708;9.030;2022-10-22T11:15:51;18.40;99.90
6355;DHT22;3210;48.708;9.030;2022-10-22T11:18:23;18.30;99.90
6355;DHT22;3210;48.708;9.030;2022-10-22T11:21:13;18.20;99.90
6355;DHT22;3210;48.708;9.030;2022-10-22T11:23:48;18.20;99.90
6355;DHT22;3210;48.708;9.030;2022-10-22T11:26:27;18.10;99.90
6355;DHT22;3210;48.708;9.030;2022-10-22T11:28:57;18.00;99.90
6355;DHT22;3210;48.708;9.030;2022-10-22T11:31:25;18.20;99.90
6355;DHT22;3210;48.708;9.030;2022-10-22T11:33:53;18.30;99.90
6355;DHT22;3210;48.708;9.030;2022-10-22T11:36:24;18.40;99.90
6355;DHT22;3210;48.708;9.030;2022-10-22T11:38:53;18.50;99.90
6355;DHT22;3210;48.708;9.030;2022-10-22T11:41:23;18.60;99.90
6355;DHT22;3210;48.708;9.030;2022-10-22T11:44:07;18.60;91.10
6355;DHT22;3210;48.708;9.030;2022-10-22T11:46:45;18.70;98.70
6355;DHT22;3210;48.708;9.030;2022-10-22T11:49:23;18.90;94.60
6355;DHT22;3210;48.708;9.030;2022-10-22T11:51:51;19.00;82.00
6355;DHT22;3210;48.708;9.030;2022-10-22T11:54:39;18.90;89.70
6355;DHT22;3210;48.708;9.030;2022-10-22T11:57:24;19.10;45.20
6355;DHT22;3210;48.708;9.030;2022-10-22T11:59:55;19.00;48.30
6355;DHT22;3210;48.708;9.030;2022-10-22T12:02:28;18.80;31.90
6355;DHT22;3210;48.708;9.030;2022-10-22T12:08:24;18.20;32.00
6355;DHT22;3210;48.708;9.030;2022-10-22T12:11:02;18.10;37.70
6355;DHT22;3210;48.708;9.030;2022-10-22T12:13:32;17.90;41.60
6355;DHT22;3210;48.708;9.030;2022-10-22T12:16:01;17.80;49.30
6355;DHT22;3210;48.708;9.030;2022-10-22T12:18:34;17.90;58.60
6355;DHT22;3210;48.708;9.030;2022-10-22T12:21:04;18.10;51.70
6355;DHT22;3210;48.708;9.030;2022-10-22T12:23:33;18.30;45.50
6355;DHT22;3210;48.708;9.030;2022-10-22T12:26:03;18.40;35.80
6355;DHT22;3210;48.708;9.030;2022-10-22T12:28:36;18.40;39.10
6355;DHT22;3210;48.708;9.030;2022-10-22T12:31:04;18.60;40.60
6355;DHT22;3210;48.708;9.030;2022-10-22T12:33:32;18.80;41.50
6355;DHT22;3210;48.708;9.030;2022-10-22T12:35:58;19.10;49.40
6355;DHT22;3210;48.708;9.030;2022-10-22T12:38:28;19.10;30.00
6355;DHT22;3210;48.708;9.030;2022-10-22T12:40:56;19.10;25.60
6355;DHT22;3210;48.708;9.030;2022-10-22T12:43:26;19.10;18.00
6355;DHT22;3210;48.708;9.030;2022-10-22T12:45:54;19.10;11.10
6355;DHT22;3210;48.708;9.030;2022-10-22T12:48:23;19.10;16.80
6355;DHT22;3210;48.708;9.030;2022-10-22T12:50:52;18.80;9.50
6355;DHT22;3210;48.708;9.030;2022-10-22T12:53:23;18.70;3.80
6355;DHT22;3210;48.708;9.030;2022-10-22T12:55:52;18.40;7.40
6355;DHT22;3210;48.708;9.030;2022-10-22T12:58:21;18.40;11.90
6355;DHT22;3210;48.708;9.030;2022-10-22T13:00:54;18.20;13.30
6355;DHT22;3210;48.708;9.030;2022-10-22T13:03:28;18.30;9.10
6355;DHT22;3210;48.708;9.030;2022-10-22T13:05:55;18.30;11.60
6355;DHT22;3210;48.708;9.030;2022-10-22T13:08:26;18.30;14.40
6355;DHT22;3210;48.708;9.030;2022-10-22T13:10:54;18.20;25.20
6355;DHT22;3210;48.708;9.030;2022-10-22T13:13:31;18.10;19.60
6355;DHT22;3210;48.708;9.030;2022-10-22T13:16:18;18.20;8.20
6355;DHT22;3210;48.708;9.030;2022-10-22T13:18:45;18.40;9.40
6355;DHT22;3210;48.708;9.030;2022-10-22T13:21:26;18.50;12.20
6355;DHT22;3210;48.708;9.030;2022-10-22T13:23:56;18.50;14.20
6355;DHT22;3210;48.708;9.030;2022-10-22T13:26:28;18.70;12.40
6355;DHT22;3210;48.708;9.030;2022-10-22T13:28:56;18.80;24.50
6355;DHT22;3210;48.708;9.030;2022-10-22T13:31:27;18.90;13.10
6355;DHT22;3210;48.708;9.030;2022-10-22T13:33:59;19.00;5.10
6355;DHT22;3210;48.708;9.030;2022-10-22T13:36:26;19.20;5.30
6355;DHT22;3210;48.708;9.030;2022-10-22T13:38:53;19.10;1.00
6355;DHT22;3210;48.708;9.030;2022-10-22T13:41:22;19.20;1.00
6355;DHT22;3210;48.708;9.030;2022-10-22T13:43:50;19.30;1.00
6355;DHT22;3210;48.708;9.030;2022-10-22T13:46:17;19.30;1.00
6355;DHT22;3210;48.708;9.030;2022-10-22T13:48:47;19.30;1.00
6355;DHT22;3210;48.708;9.030;2022-10-22T13:51:16;19.30;7.50
6355;DHT22;3210;48.708;9.030;2022-10-22T13:53:44;19.20;1.00
6355;DHT22;3210;48.708;9.030;2022-10-22T13:56:16;19.20;1.00
6355;DHT22;3210;48.708;9.030;2022-10-22T13:58:45;19.20;1.00
6355;DHT22;3210;48.708;9.030;2022-10-22T14:01:17;19.10;1.00
6355;DHT22;3210;48.708;9.030;2022-10-22T14:03:48;19.00;1.00
6355;DHT22;3210;48.708;9.030;2022-10-22T14:06:17;19.10;1.00
6355;DHT22;3210;48.708;9.030;2022-10-22T14:08:45;19.00;1.00
6355;DHT22;3210;48.708;9.030;2022-10-22T14:11:16;19.00;1.00
6355;DHT22;3210;48.708;9.030;2022-10-22T14:13:42;18.90;1.00
6355;DHT22;3210;48.708;9.030;2022-10-22T14:16:15;18.80;1.00
6355;DHT22;3210;48.708;9.030;2022-10-22T14:18:45;18.70;1.00
6355;DHT22;3210;48.708;9.030;2022-10-22T14:21:13;18.70;1.00
6355;DHT22;3210;48.708;9.030;2022-10-22T14:23:41;18.70;1.00
6355;DHT22;3210;48.708;9.030;2022-10-22T14:26:17;18.60;1.00
6355;DHT22;3210;48.708;9.030;2022-10-22T14:28:45;18.60;1.00
6355;DHT22;3210;48.708;9.030;2022-10-22T14:31:12;18.60;1.00
6355;DHT22;3210;48.708;9.030;2022-10-22T14:33:39;18.70;1.00
6355;DHT22;3210;48.708;9.030;2022-10-22T14:36:08;18.70;1.00
6355;DHT22;3210;48.708;9.030;2022-10-22T14:38:36;18.60;1.00
6355;DHT22;3210;48.708;9.030;2022-10-22T14:41:13;18.50;1.00
6355;DHT22;3210;48.708;9.030;2022-10-22T14:43:42;18.50;1.00
6355;DHT22;3210;48.708;9.030;2022-10-22T14:46:10;18.50;1.00
6355;DHT22;3210;48.708;9.030;2022-10-22T14:48:37;18.40;1.00
6355;DHT22;3210;48.708;9.030;2022-10-22T14:51:04;18.40;1.00
6355;DHT22;3210;48.708;9.030;2022-10-22T14:53:33;18.40;1.00
6355;DHT22;3210;48.708;9.030;2022-10-22T14:55:59;18.30;1.00
6355;DHT22;3210;48.708;9.030;2022-10-22T14:58:27;18.20;1.00
6355;DHT22;3210;48.708;9.030;2022-10-22T15:00:53;18.10;1.00
6355;DHT22;3210;48.708;9.030;2022-10-22T15:03:20;18.10;1.00
6355;DHT22;3210;48.708;9.030;2022-10-22T15:05:50;18.00;1.00
6355;DHT22;3210;48.708;9.030;2022-10-22T15:08:18;18.00;1.00
6355;DHT22;3210;48.708;9.030;2022-10-22T15:10:56;18.00;1.00
6355;DHT22;3210;48.708;9.030;2022-10-22T15:13:23;17.90;1.00
6355;DHT22;3210;48.708;9.030;2022-10-22T15:15:50;17.80;1.00
6355;DHT22;3210;48.708;9.030;2022-10-22T15:18:17;17.90;1.00
6355;DHT22;3210;48.708;9.030;2022-10-22T15:20:43;17.90;1.00
6355;DHT22;3210;48.708;9.030;2022-10-22T15:23:10;17.80;1.00
6355;DHT22;3210;48.708;9.030;2022-10-22T15:25:37;17.80;1.00
6355;DHT22;3210;48.708;9.030;2022-10-22T15:28:10;17.80;1.00
6355;DHT22;3210;48.708;9.030;2022-10-22T15:30:36;17.70;1.00
6355;DHT22;3210;48.708;9.030;2022-10-22T15:33:06;17.50;1.00
6355;DHT22;3210;48.708;9.030;2022-10-22T15:35:33;17.40;1.00
6355;DHT22;3210;48.708;9.030;2022-10-22T15:38:00;17.30;1.00
6355;DHT22;3210;48.708;9.030;2022-10-22T15:40:27;17.10;1.00
6355;DHT22;3210;48.708;9.030;2022-10-22T15:42:54;17.00;1.00
6355;DHT22;3210;48.708;9.030;2022-10-22T15:45:22;17.00;1.00
6355;DHT22;3210;48.708;9.030;2022-10-22T15:47:49;16.90;1.00
6355;DHT22;3210;48.708;9.030;2022-10-22T15:50:16;16.80;1.00
6355;DHT22;3210;48.708;9.030;2022-10-22T15:52:43;16.60;10.60
6355;DHT22;3210;48.708;9.030;2022-10-22T15:55:10;16.40;45.80
6355;DHT22;3210;48.708;9.030;2022-10-22T15:57:37;16.10;99.90
6355;DHT22;3210;48.708;9.030;2022-10-22T16:00:05;15.80;99.90
6355;DHT22;3210;48.708;9.030;2022-10-22T16:02:34;15.40;99.90
6355;DHT22;3210;48.708;9.030;2022-10-22T16:05:01;15.10;99.90
6355;DHT22;3210;48.708;9.030;2022-10-22T16:07:28;15.10;99.90
6355;DHT22;3210;48.708;9.030;2022-10-22T16:09:56;14.90;99.90
6355;DHT22;3210;48.708;9.030;2022-10-22T16:12:23;14.80;99.90
6355;DHT22;3210;48.708;9.030;2022-10-22T16:14:50;14.60;1.00
6355;DHT22;3210;48.708;9.030;2022-10-22T16:17:17;14.50;1.00
6355;DHT22;3210;48.708;9.030;2022-10-22T16:19:46;14.40;1.00
6355;DHT22;3210;48.708;9.030;2022-10-22T16:22:13;14.20;22.00
6355;DHT22;3210;48.708;9.030;2022-10-22T16:24:40;14.00;99.90
6355;DHT22;3210;48.708;9.030;2022-10-22T16:27:08;13.90;99.90
6355;DHT22;3210;48.708;9.030;2022-10-22T16:29:36;13.90;99.90
6355;DHT22;3210;48.708;9.030;2022-10-22T16:32:04;13.80;99.90
6355;DHT22;3210;48.708;9.030;2022-10-22T16:34:32;13.70;1.00
6355;DHT22;3210;48.708;9.030;2022-10-22T16:37:00;13.50;1.00